罗盘
风向 的 风向 的 风向 到 风向 200°
风: 5 kt, 2 beaufort

添加一条跑道以查看侧风和逆风信息。

添置 跑道
0 1.000 2.000 3.000 4.000 5.000
没有观察到明显的云
METAR EDDS 261650Z AUTO 20005KT 120V270 9999 -RA NSC 12/07 Q1004 NOSIG

METAR Esslingen-Jägerhaus Airfield - DE-0279

Esslingen-Jägerhaus Airfield是Esslingen,德国中的小机场。 视场标高为1.625 ft。 该领域的国际民航组织标志是DE-0279.

这份报告是针对2022年9月26日 18:50, 当地时间在Stuttgart Airport进行的。

机场观察

风向为200°,速度为5 kt。 风向在120°和270°之间变化。

可见度为10 km 或者更多。

有没有观察到明显的云。 没有观察到天花板。

当前天气为光 雨。 温度和风寒是12 °C。 露点为7 °C,相对湿度为72%。 海平面上的气压为1004 hPa (QNH)。

白天

今天,太阳从07:14升起,在19:13降落。 这适用于Esslingen-Jägerhaus Airfield,世界夏令时可能有所不同。 当地时间与世界标准时间之间的时差为+2 小时。 夏令时目前正在进行中。

公司介绍

我们没有关于这个机场的公司信息。

体会

到Vliegles.nl去找飞行课程,跳伞和其他飞行体验。 浏览页面,了解Esslingen-Jägerhaus Airfield附近所有可用的活动。 你也可以使用搜索功能来寻找你所在地附近的特定飞行课程、跳伞或其他飞行体验。

乌云

- NSC 没有观察到明显的云

温度 & 天气

天气 光 雨
温度 12 °C
露点 7 °C
相对湿度 72%
Kp-index 0  

白天

日出
07:15
中午
13:14
日落
19:13 (8m)

小工具

你想在你的网站上有一个关于Esslingen-Jägerhaus Airfield的当前航空天气(METAR)的小部件吗?

</> 显示HTML代码

我们和第三方通过cookies跟踪您在我们网站上的上网行为。如果您继续,我们认为您同意我们的cookie政策。 了解更多